Time;durP1;ratioP1;P1;durP2;ratioP2;P2;SDS_P1;SDS_P2;PMS_P1;PMS_P2;Temp;Humidity;BMP_temperature;BMP_pressure;BME280_temperature;BME280_humidity;BME280_pressure;Samples;Min_cycle;Max_cycle;Signal;HPM_P1;HPM_P2
2021/03/03 00:01:08;;;;;;;9.05;7.93;;;;;;;;;;5055922;28;20317;-50
2021/03/03 00:03:34;;;;;;;9.15;8.10;;;;;;;;;;5059545;28;20209;-50
2021/03/03 00:06:00;;;;;;;8.45;7.55;;;;;;;;;;5056051;28;20221;-50
2021/03/03 00:08:26;;;;;;;8.25;7.43;;;;;;;;;;5056199;28;20293;-50
2021/03/03 00:10:52;;;;;;;8.85;7.88;;;;;;;;;;5056640;28;20263;-53
2021/03/03 00:13:18;;;;;;;8.95;7.43;;;;;;;;;;5055992;28;20240;-51
2021/03/03 00:15:44;;;;;;;9.27;7.15;;;;;;;;;;5055770;28;20198;-50
2021/03/03 00:18:10;;;;;;;7.82;7.03;;;;;;;;;;5056570;28;20187;-50
2021/03/03 00:20:36;;;;;;;8.45;7.47;;;;;;;;;;5056334;28;20445;-50
2021/03/03 00:23:03;;;;;;;8.65;6.93;;;;;;;;;;5056392;28;20179;-51
2021/03/03 00:25:29;;;;;;;7.53;6.78;;;;;;;;;;5054099;28;20198;-49
2021/03/03 00:27:54;;;;;;;8.20;7.30;;;;;;;;;;5056488;28;20191;-50
2021/03/03 00:30:23;;;;;;;7.75;6.68;;;;;;;;;;5055900;28;20213;-50
2021/03/03 00:32:49;;;;;;;8.55;7.03;;;;;;;;;;5066027;28;20193;-50
2021/03/03 00:35:15;;;;;;;7.38;6.30;;;;;;;;;;5060982;28;20253;-49
2021/03/03 00:37:41;;;;;;;7.90;6.78;;;;;;;;;;5055644;28;20191;-50
2021/03/03 00:40:08;;;;;;;8.75;6.43;;;;;;;;;;5056066;28;20179;-51
2021/03/03 00:42:34;;;;;;;7.18;6.43;;;;;;;;;;5056398;28;20179;-51
2021/03/03 00:45:00;;;;;;;8.55;7.55;;;;;;;;;;5054877;28;20233;-51
2021/03/03 00:47:26;;;;;;;8.07;7.28;;;;;;;;;;5064333;28;20201;-50
2021/03/03 00:49:52;;;;;;;8.90;6.55;;;;;;;;;;5057830;28;20215;-51
2021/03/03 00:52:18;;;;;;;6.70;6.00;;;;;;;;;;5070262;28;20197;-51
2021/03/03 00:54:44;;;;;;;8.00;6.75;;;;;;;;;;5065584;28;20179;-50
2021/03/03 00:57:10;;;;;;;7.03;6.10;;;;;;;;;;5055300;28;20191;-51
2021/03/03 00:59:36;;;;;;;7.22;5.95;;;;;;;;;;5057257;28;20183;-50
2021/03/03 01:02:02;;;;;;;7.35;6.35;;;;;;;;;;5055478;28;20210;-50
2021/03/03 01:04:28;;;;;;;7.03;6.07;;;;;;;;;;5055216;28;20180;-51
2021/03/03 01:06:54;;;;;;;7.43;6.10;;;;;;;;;;5066062;28;20224;-51
2021/03/03 01:09:20;;;;;;;7.10;6.40;;;;;;;;;;5055618;28;20191;-51
2021/03/03 01:11:46;;;;;;;7.18;6.20;;;;;;;;;;5055252;28;20202;-51
2021/03/03 01:14:12;;;;;;;6.68;5.97;;;;;;;;;;5053846;28;20613;-50
2021/03/03 01:16:39;;;;;;;6.60;6.00;;;;;;;;;;5064662;28;20178;-50
2021/03/03 01:19:05;;;;;;;6.97;6.20;;;;;;;;;;5055196;28;20756;-50
2021/03/03 01:21:31;;;;;;;6.50;5.90;;;;;;;;;;5058209;28;20258;-50
2021/03/03 01:23:57;;;;;;;6.30;5.68;;;;;;;;;;5054623;28;20187;-51
2021/03/03 01:26:23;;;;;;;6.80;6.03;;;;;;;;;;5060102;28;20186;-51
2021/03/03 01:28:49;;;;;;;6.95;5.80;;;;;;;;;;5069932;28;20190;-50
2021/03/03 01:31:15;;;;;;;6.78;6.07;;;;;;;;;;5063094;28;20175;-50
2021/03/03 01:33:41;;;;;;;5.97;5.40;;;;;;;;;;5061292;28;20304;-51
2021/03/03 01:36:07;;;;;;;6.07;5.47;;;;;;;;;;5054135;28;20197;-50
2021/03/03 01:38:33;;;;;;;7.40;5.70;;;;;;;;;;5054513;28;20191;-50
2021/03/03 01:40:59;;;;;;;6.28;5.25;;;;;;;;;;5058975;28;20182;-50
2021/03/03 01:43:25;;;;;;;5.85;5.18;;;;;;;;;;5062459;28;20187;-50
2021/03/03 01:45:51;;;;;;;5.97;5.25;;;;;;;;;;5053906;28;20187;-51
2021/03/03 01:48:17;;;;;;;6.60;6.00;;;;;;;;;;5054247;28;20581;-50
2021/03/03 01:50:44;;;;;;;5.80;5.20;;;;;;;;;;5070462;28;20250;-50
2021/03/03 01:53:10;;;;;;;6.30;5.70;;;;;;;;;;5054435;28;20176;-50
2021/03/03 01:55:36;;;;;;;5.70;5.10;;;;;;;;;;5056808;28;20438;-51
2021/03/03 01:58:05;;;;;;;5.57;5.00;;;;;;;;;;5054427;28;20201;-50
2021/03/03 02:00:31;;;;;;;5.88;5.28;;;;;;;;;;5054084;28;20203;-50
2021/03/03 02:02:57;;;;;;;6.63;5.35;;;;;;;;;;5054301;28;20183;-51
2021/03/03 02:05:24;;;;;;;5.97;5.35;;;;;;;;;;5053726;28;20627;-50
2021/03/03 02:07:53;;;;;;;5.50;5.00;;;;;;;;;;5052079;28;20973;-50
2021/03/03 02:10:19;;;;;;;5.72;5.18;;;;;;;;;;5061184;28;20207;-50
2021/03/03 02:12:53;;;;;;;5.85;5.25;;;;;;;;;;5054051;28;20466;-50
2021/03/03 02:15:20;;;;;;;5.75;5.18;;;;;;;;;;5053361;28;20187;-50
2021/03/03 02:17:47;;;;;;;5.63;5.13;;;;;;;;;;5063776;28;20183;-50
2021/03/03 02:20:14;;;;;;;6.53;5.90;;;;;;;;;;5053873;28;20212;-50
2021/03/03 02:22:52;;;;;;;5.25;4.75;;;;;;;;;;5064626;28;20197;-50
2021/03/03 02:25:22;;;;;;;5.50;5.00;;;;;;;;;;5052858;28;20197;-50
2021/03/03 02:27:49;;;;;;;5.20;4.70;;;;;;;;;;5054097;28;20463;-50
2021/03/03 02:30:15;;;;;;;5.13;4.63;;;;;;;;;;5056749;28;20210;-50
2021/03/03 02:32:41;;;;;;;5.20;4.70;;;;;;;;;;5062407;28;20174;-50
2021/03/03 02:35:11;;;;;;;4.93;4.43;;;;;;;;;;5066717;28;20194;-50
2021/03/03 02:37:37;;;;;;;4.90;4.50;;;;;;;;;;5055975;28;20836;-50
2021/03/03 02:40:07;;;;;;;4.80;4.40;;;;;;;;;;5053711;28;20289;-51
2021/03/03 02:42:34;;;;;;;5.13;4.63;;;;;;;;;;5054103;28;20183;-50
2021/03/03 02:45:02;;;;;;;5.28;4.70;;;;;;;;;;5053235;28;20607;-51
2021/03/03 02:47:28;;;;;;;5.47;4.90;;;;;;;;;;5053628;28;20233;-50
2021/03/03 02:49:56;;;;;;;5.10;4.60;;;;;;;;;;5045222;28;20202;-50
2021/03/03 02:52:22;;;;;;;5.45;4.95;;;;;;;;;;5058004;28;20171;-51
2021/03/03 02:54:48;;;;;;;5.40;4.80;;;;;;;;;;5057306;28;20177;-50
2021/03/03 02:57:14;;;;;;;4.43;4.03;;;;;;;;;;5058011;28;20296;-51
2021/03/03 02:59:45;;;;;;;5.00;4.50;;;;;;;;;;5057049;28;20177;-51
2021/03/03 03:02:13;;;;;;;5.28;4.78;;;;;;;;;;5057562;28;20225;-51
2021/03/03 03:04:42;;;;;;;5.55;4.90;;;;;;;;;;5064590;28;20190;-51
2021/03/03 03:07:10;;;;;;;4.60;4.20;;;;;;;;;;5073422;28;20581;-49
2021/03/03 03:09:37;;;;;;;4.57;4.18;;;;;;;;;;5057278;28;20780;-51
2021/03/03 03:12:04;;;;;;;5.05;4.55;;;;;;;;;;5057429;28;20493;-50
2021/03/03 03:14:30;;;;;;;5.88;4.55;;;;;;;;;;5056743;28;20179;-50
2021/03/03 03:16:57;;;;;;;4.50;4.10;;;;;;;;;;5057521;28;20840;-50
2021/03/03 03:19:25;;;;;;;4.82;4.35;;;;;;;;;;5056975;28;20616;-50
2021/03/03 03:21:52;;;;;;;4.82;4.20;;;;;;;;;;5057523;28;20274;-50
2021/03/03 03:24:19;;;;;;;4.40;4.00;;;;;;;;;;5063161;28;20564;-51
2021/03/03 03:26:48;;;;;;;5.03;4.53;;;;;;;;;;5061823;28;20191;-50
2021/03/03 03:29:14;;;;;;;4.68;4.28;;;;;;;;;;5056401;28;20203;-50
2021/03/03 03:31:40;;;;;;;4.35;3.95;;;;;;;;;;5057088;28;20437;-50
2021/03/03 03:34:08;;;;;;;4.43;4.03;;;;;;;;;;5056375;28;20811;-50
2021/03/03 03:36:35;;;;;;;4.55;3.90;;;;;;;;;;5057378;28;20175;-50
2021/03/03 03:39:02;;;;;;;4.78;4.18;;;;;;;;;;5058429;28;20198;-50
2021/03/03 03:41:28;;;;;;;5.65;4.20;;;;;;;;;;5056552;28;20266;-50
2021/03/03 03:43:55;;;;;;;5.38;4.25;;;;;;;;;;5056768;28;20197;-50
2021/03/03 03:46:21;;;;;;;4.43;4.03;;;;;;;;;;5063580;28;20740;-51
2021/03/03 03:48:47;;;;;;;4.85;4.35;;;;;;;;;;5076568;28;20190;-51
2021/03/03 03:51:13;;;;;;;5.57;4.30;;;;;;;;;;5058177;28;20222;-51
2021/03/03 03:53:39;;;;;;;4.28;3.88;;;;;;;;;;5056438;28;20833;-50
2021/03/03 03:56:09;;;;;;;4.78;4.30;;;;;;;;;;5055943;28;20248;-50
2021/03/03 03:58:35;;;;;;;4.75;4.30;;;;;;;;;;5056116;28;20172;-50
2021/03/03 04:01:01;;;;;;;4.50;4.10;;;;;;;;;;5056486;28;20225;-51
2021/03/03 04:03:27;;;;;;;4.28;3.88;;;;;;;;;;5056548;28;20206;-50
2021/03/03 04:05:53;;;;;;;3.90;3.55;;;;;;;;;;5062067;28;20214;-51
2021/03/03 04:08:19;;;;;;;4.85;4.45;;;;;;;;;;5057405;28;20202;-51
2021/03/03 04:10:45;;;;;;;4.65;4.22;;;;;;;;;;5056461;28;20485;-51
2021/03/03 04:13:11;;;;;;;4.40;3.78;;;;;;;;;;5072152;28;20236;-50
2021/03/03 04:15:37;;;;;;;4.32;3.92;;;;;;;;;;5058605;28;20605;-50
2021/03/03 04:18:03;;;;;;;3.80;3.50;;;;;;;;;;5062122;28;20187;-50
2021/03/03 04:20:29;;;;;;;4.45;4.05;;;;;;;;;;5057356;28;20201;-50
2021/03/03 04:22:55;;;;;;;4.15;3.75;;;;;;;;;;5056194;28;20558;-50
2021/03/03 04:25:21;;;;;;;4.10;3.75;;;;;;;;;;5055022;28;20198;-50
2021/03/03 04:27:47;;;;;;;3.95;3.65;;;;;;;;;;5068291;28;20175;-50
2021/03/03 04:30:15;;;;;;;4.30;3.90;;;;;;;;;;5058036;28;20466;-50
2021/03/03 04:32:41;;;;;;;4.30;3.90;;;;;;;;;;5056051;28;20569;-50
2021/03/03 04:35:07;;;;;;;3.80;3.40;;;;;;;;;;5055442;28;20179;-50
2021/03/03 04:37:33;;;;;;;3.83;3.45;;;;;;;;;;5055239;28;20554;-50
2021/03/03 04:39:59;;;;;;;4.35;3.95;;;;;;;;;;5055725;28;20198;-50
2021/03/03 04:42:25;;;;;;;4.10;3.70;;;;;;;;;;5068411;28;20989;-50
2021/03/03 04:44:51;;;;;;;4.13;3.72;;;;;;;;;;5061936;28;20183;-50
2021/03/03 04:47:17;;;;;;;4.25;3.67;;;;;;;;;;5064898;28;20192;-50
2021/03/03 04:49:43;;;;;;;4.13;3.75;;;;;;;;;;5056070;28;20562;-51
2021/03/03 04:52:09;;;;;;;3.92;3.53;;;;;;;;;;5059259;28;20258;-51
2021/03/03 04:54:35;;;;;;;4.10;3.70;;;;;;;;;;5059071;28;20260;-50
2021/03/03 04:57:05;;;;;;;3.90;3.50;;;;;;;;;;5056862;28;20179;-51
2021/03/03 04:59:31;;;;;;;4.50;3.78;;;;;;;;;;5055248;28;20311;-50
2021/03/03 05:01:57;;;;;;;4.15;3.75;;;;;;;;;;5067742;28;20572;-50
2021/03/03 05:04:23;;;;;;;4.28;3.67;;;;;;;;;;5055702;28;20228;-50
2021/03/03 05:06:49;;;;;;;4.18;3.75;;;;;;;;;;5055425;28;21936;-50
2021/03/03 05:09:15;;;;;;;3.90;3.50;;;;;;;;;;5055125;28;20206;-50
2021/03/03 05:11:41;;;;;;;3.58;3.28;;;;;;;;;;5058218;28;20257;-50
2021/03/03 05:14:07;;;;;;;4.13;3.72;;;;;;;;;;5067541;28;20259;-50
2021/03/03 05:16:33;;;;;;;3.95;3.55;;;;;;;;;;5064243;28;20281;-51
2021/03/03 05:18:59;;;;;;;3.80;3.40;;;;;;;;;;5055577;28;20520;-50
2021/03/03 05:21:25;;;;;;;4.38;3.58;;;;;;;;;;5068467;28;20257;-50
2021/03/03 05:23:51;;;;;;;4.13;3.72;;;;;;;;;;5055200;28;20716;-50
2021/03/03 05:26:17;;;;;;;4.53;4.07;;;;;;;;;;5054076;28;20289;-50
2021/03/03 05:28:47;;;;;;;4.53;4.13;;;;;;;;;;5070689;28;20193;-50
2021/03/03 05:31:13;;;;;;;4.05;3.65;;;;;;;;;;5062837;28;20571;-50
2021/03/03 05:33:41;;;;;;;4.03;3.63;;;;;;;;;;5055246;28;20484;-50
2021/03/03 05:36:07;;;;;;;4.18;3.78;;;;;;;;;;5065178;28;20182;-50
2021/03/03 05:38:34;;;;;;;4.63;4.18;;;;;;;;;;5058074;28;20558;-50
2021/03/03 05:41:00;;;;;;;4.32;3.92;;;;;;;;;;5054885;28;20209;-50
2021/03/03 05:43:26;;;;;;;3.70;3.40;;;;;;;;;;5071026;28;20191;-50
2021/03/03 05:45:52;;;;;;;3.83;3.53;;;;;;;;;;5059367;28;20278;-50
2021/03/03 05:48:25;;;;;;;3.67;3.38;;;;;;;;;;5058276;28;20226;-50
2021/03/03 05:50:58;;;;;;;4.10;3.70;;;;;;;;;;5055005;28;20222;-50
2021/03/03 05:53:28;;;;;;;4.20;3.80;;;;;;;;;;5071682;28;20449;-50
2021/03/03 05:55:55;;;;;;;3.80;3.50;;;;;;;;;;5061237;28;20208;-50
2021/03/03 05:58:22;;;;;;;4.05;3.67;;;;;;;;;;5055059;28;20214;-50
2021/03/03 06:00:49;;;;;;;3.47;3.17;;;;;;;;;;5052935;28;20221;-51
2021/03/03 06:03:16;;;;;;;3.90;3.60;;;;;;;;;;5057007;28;20198;-51
2021/03/03 06:05:42;;;;;;;4.25;3.65;;;;;;;;;;5053115;28;20179;-50
2021/03/03 06:08:08;;;;;;;5.15;4.00;;;;;;;;;;5054276;28;20235;-50
2021/03/03 06:10:34;;;;;;;3.75;3.45;;;;;;;;;;5053859;28;20221;-50
2021/03/03 06:13:00;;;;;;;5.75;4.00;;;;;;;;;;5054783;28;20187;-50
2021/03/03 06:15:27;;;;;;;3.80;3.42;;;;;;;;;;5054483;28;20240;-51
2021/03/03 06:17:53;;;;;;;3.92;3.53;;;;;;;;;;5061412;28;20265;-53
2021/03/03 06:20:19;;;;;;;7.80;3.90;;;;;;;;;;5057124;28;20182;-53
2021/03/03 06:22:45;;;;;;;4.32;3.55;;;;;;;;;;5062113;28;20205;-53
2021/03/03 06:25:19;;;;;;;4.05;3.38;;;;;;;;;;5052927;28;20562;-53
2021/03/03 06:27:45;;;;;;;5.32;3.80;;;;;;;;;;5054112;28;20273;-53
2021/03/03 06:30:12;;;;;;;3.72;3.40;;;;;;;;;;5053462;28;20242;-53
2021/03/03 06:32:53;;;;;;;4.43;3.72;;;;;;;;;;5055216;28;20179;-53
2021/03/03 06:35:32;;;;;;;4.10;3.72;;;;;;;;;;5053274;28;20179;-53
2021/03/03 06:38:00;;;;;;;4.25;3.85;;;;;;;;;;5054674;28;20286;-53
2021/03/03 06:40:26;;;;;;;5.10;4.05;;;;;;;;;;5056691;28;20198;-53
2021/03/03 06:42:52;;;;;;;7.15;4.05;;;;;;;;;;5065239;28;20178;-53
2021/03/03 06:45:31;;;;;;;4.25;3.85;;;;;;;;;;5073177;28;20178;-53
2021/03/03 06:47:58;;;;;;;4.40;4.00;;;;;;;;;;5061351;28;20461;-53
2021/03/03 06:50:35;;;;;;;4.88;4.38;;;;;;;;;;5056057;28;20293;-53
2021/03/03 06:53:01;;;;;;;4.97;4.10;;;;;;;;;;5062716;28;20183;-53
2021/03/03 06:55:45;;;;;;;4.25;3.85;;;;;;;;;;5063759;28;20187;-53
2021/03/03 06:58:28;;;;;;;5.25;3.78;;;;;;;;;;5058493;28;20183;-53
2021/03/03 07:00:54;;;;;;;8.98;7.32;;;;;;;;;;5053535;28;20203;-53
2021/03/03 07:03:23;;;;;;;6.57;5.85;;;;;;;;;;5053277;28;20182;-53
2021/03/03 07:05:49;;;;;;;7.35;5.70;;;;;;;;;;5052471;28;20624;-53
2021/03/03 07:08:16;;;;;;;7.45;6.10;;;;;;;;;;5052612;28;20187;-53
2021/03/03 07:10:42;;;;;;;8.43;6.20;;;;;;;;;;5053556;28;20265;-53
2021/03/03 07:13:08;;;;;;;9.90;7.20;;;;;;;;;;5053719;28;20179;-53
2021/03/03 07:15:35;;;;;;;10.00;7.10;;;;;;;;;;5055969;28;20187;-53
2021/03/03 07:18:01;;;;;;;12.77;7.97;;;;;;;;;;5060302;28;20183;-53
2021/03/03 07:20:27;;;;;;;9.25;7.68;;;;;;;;;;5054505;28;20183;-53
2021/03/03 07:22:56;;;;;;;10.88;7.78;;;;;;;;;;5055848;28;20195;-53
2021/03/03 07:25:23;;;;;;;12.65;7.72;;;;;;;;;;5057561;28;20187;-53
2021/03/03 07:27:49;;;;;;;15.18;8.68;;;;;;;;;;5053538;28;20187;-53
2021/03/03 07:30:19;;;;;;;12.00;7.90;;;;;;;;;;5052891;28;20203;-53
2021/03/03 07:32:46;;;;;;;12.50;8.70;;;;;;;;;;5054604;28;20183;-53
2021/03/03 07:35:12;;;;;;;13.07;8.18;;;;;;;;;;5061946;28;20261;-53
2021/03/03 07:37:39;;;;;;;10.32;7.40;;;;;;;;;;5059585;28;20234;-53
2021/03/03 07:40:05;;;;;;;16.15;8.02;;;;;;;;;;5060377;28;20187;-53
2021/03/03 07:42:32;;;;;;;10.13;7.28;;;;;;;;;;5071909;28;20191;-53
2021/03/03 07:44:59;;;;;;;13.15;8.02;;;;;;;;;;5066948;28;20507;-53
2021/03/03 07:47:28;;;;;;;10.80;7.57;;;;;;;;;;5069833;28;20279;-53
2021/03/03 07:49:55;;;;;;;11.00;7.03;;;;;;;;;;5069743;28;20210;-53
2021/03/03 07:52:22;;;;;;;12.98;7.40;;;;;;;;;;5062988;28;20175;-53
2021/03/03 07:54:48;;;;;;;9.88;6.72;;;;;;;;;;5058770;28;20175;-53
2021/03/03 07:57:14;;;;;;;12.00;7.43;;;;;;;;;;5055476;28;20211;-53
2021/03/03 07:59:44;;;;;;;16.10;7.55;;;;;;;;;;5057008;28;20225;-53
2021/03/03 08:02:10;;;;;;;10.57;7.45;;;;;;;;;;5068499;28;20186;-53
2021/03/03 08:04:37;;;;;;;9.98;6.57;;;;;;;;;;5062303;28;20179;-53
2021/03/03 08:07:16;;;;;;;10.23;6.28;;;;;;;;;;5055633;28;20242;-53
2021/03/03 08:10:21;;;;;;;11.02;7.22;;;;;;;;;;5062723;28;20199;-52
2021/03/03 08:12:56;;;;;;;9.85;6.63;;;;;;;;;;4993247;28;20190;-53
2021/03/03 08:15:31;;;;;;;8.52;6.40;;;;;;;;;;5013663;28;20279;-53
2021/03/03 08:18:16;;;;;;;9.90;6.65;;;;;;;;;;5045991;28;20194;-53
2021/03/03 08:20:43;;;;;;;9.55;6.57;;;;;;;;;;5066779;28;20183;-52
2021/03/03 08:23:09;;;;;;;9.40;6.32;;;;;;;;;;5056027;28;20266;-52
2021/03/03 08:25:42;;;;;;;10.23;6.88;;;;;;;;;;5055221;28;20183;-52
2021/03/03 08:28:28;;;;;;;9.27;6.35;;;;;;;;;;5055391;28;20187;-52
2021/03/03 08:31:12;;;;;;;7.80;6.32;;;;;;;;;;5056064;28;20206;-52
2021/03/03 08:33:39;;;;;;;7.93;6.22;;;;;;;;;;5071202;28;20577;-51
2021/03/03 08:36:07;;;;;;;9.20;5.80;;;;;;;;;;5055219;28;20191;-51
2021/03/03 08:38:33;;;;;;;7.85;6.38;;;;;;;;;;5055977;28;20282;-51
2021/03/03 08:41:14;;;;;;;10.93;6.43;;;;;;;;;;5073995;28;20178;-52
2021/03/03 08:43:41;;;;;;;8.65;6.28;;;;;;;;;;5064805;28;20187;-52
2021/03/03 08:46:19;;;;;;;10.98;6.20;;;;;;;;;;5054037;28;20179;-52
2021/03/03 08:48:46;;;;;;;8.88;6.35;;;;;;;;;;5063231;28;20261;-52
2021/03/03 08:51:28;;;;;;;8.13;6.25;;;;;;;;;;5061861;28;20231;-52
2021/03/03 08:53:55;;;;;;;8.57;6.22;;;;;;;;;;5052451;28;20187;-56
2021/03/03 08:56:39;;;;;;;7.90;6.05;;;;;;;;;;5053987;28;20225;-50
2021/03/03 08:59:05;;;;;;;38.50;12.25;;;;;;;;;;5073456;28;20170;-56
2021/03/03 09:01:51;;;;;;;73.22;20.77;;;;;;;;;;5061025;28;20190;-53
2021/03/03 09:04:17;;;;;;;89.00;22.70;;;;;;;;;;5061755;28;20198;-52
2021/03/03 09:06:47;;;;;;;95.72;24.58;;;;;;;;;;5069486;28;20596;-57
2021/03/03 09:09:13;;;;;;;75.70;21.80;;;;;;;;;;5074566;28;20216;-50
2021/03/03 09:11:39;;;;;;;76.75;21.83;;;;;;;;;;5074870;28;20183;-57
2021/03/03 09:14:06;;;;;;;67.47;20.75;;;;;;;;;;5069550;28;20182;-50
2021/03/03 09:16:32;;;;;;;65.80;19.52;;;;;;;;;;5055000;28;20554;-50
2021/03/03 09:19:02;;;;;;;67.38;19.27;;;;;;;;;;5055438;28;20458;-59
2021/03/03 09:21:31;;;;;;;69.95;19.45;;;;;;;;;;5055335;28;20167;-59
2021/03/03 09:24:07;;;;;;;61.63;18.95;;;;;;;;;;5054970;28;20203;-53
2021/03/03 09:26:33;;;;;;;58.65;17.08;;;;;;;;;;5060616;28;20265;-56
2021/03/03 09:28:59;;;;;;;53.55;17.30;;;;;;;;;;5073546;28;20274;-58
2021/03/03 09:31:32;;;;;;;45.58;16.42;;;;;;;;;;5055379;28;20221;-49
2021/03/03 09:33:59;;;;;;;45.47;16.70;;;;;;;;;;5053818;28;20186;-54
2021/03/03 09:36:25;;;;;;;42.35;15.75;;;;;;;;;;5053336;28;20739;-56
2021/03/03 09:38:58;;;;;;;50.90;15.30;;;;;;;;;;5055150;28;20175;-47
2021/03/03 09:41:24;;;;;;;43.42;14.82;;;;;;;;;;5054897;28;20187;-47
2021/03/03 09:44:00;;;;;;;46.50;15.05;;;;;;;;;;5054921;28;20179;-51
2021/03/03 09:46:26;;;;;;;42.70;15.38;;;;;;;;;;5054063;28;20229;-50
2021/03/03 09:48:52;;;;;;;41.78;14.48;;;;;;;;;;5054871;28;20179;-52
2021/03/03 09:51:18;;;;;;;44.90;14.80;;;;;;;;;;5054452;28;20209;-52
2021/03/03 09:54:11;;;;;;;33.80;15.25;;;;;;;;;;5054589;28;20179;-54
2021/03/03 09:56:37;;;;;;;33.15;13.68;;;;;;;;;;5053542;28;20286;-54
2021/03/03 09:59:03;;;;;;;36.15;13.10;;;;;;;;;;5054022;28;20183;-54
2021/03/03 10:01:29;;;;;;;39.35;14.18;;;;;;;;;;5054705;28;20175;-51
2021/03/03 10:03:55;;;;;;;35.42;14.02;;;;;;;;;;5054551;28;20183;-54
2021/03/03 10:06:21;;;;;;;36.28;13.60;;;;;;;;;;5053869;28;20653;-55
2021/03/03 10:08:47;;;;;;;33.55;13.68;;;;;;;;;;5054372;28;20453;-53
2021/03/03 10:11:15;;;;;;;28.67;12.40;;;;;;;;;;5050970;28;20222;-54
2021/03/03 10:13:41;;;;;;;25.98;11.70;;;;;;;;;;5053153;28;20573;-51
2021/03/03 10:16:15;;;;;;;32.03;12.05;;;;;;;;;;5050629;28;20186;-53
2021/03/03 10:18:56;;;;;;;32.47;12.63;;;;;;;;;;5053012;28;20184;-52
2021/03/03 10:21:22;;;;;;;26.23;11.85;;;;;;;;;;5050320;28;20183;-52
2021/03/03 10:23:48;;;;;;;27.23;11.05;;;;;;;;;;5045376;28;20444;-52
2021/03/03 10:26:14;;;;;;;23.92;11.32;;;;;;;;;;5050599;28;20195;-50
2021/03/03 10:28:40;;;;;;;23.92;11.32;;;;;;;;;;5053284;28;20205;-51
2021/03/03 10:31:07;;;;;;;25.95;11.85;;;;;;;;;;5053295;28;20203;-46
2021/03/03 10:33:37;;;;;;;23.40;10.02;;;;;;;;;;5053531;28;20175;-52
2021/03/03 10:36:04;;;;;;;27.73;11.13;;;;;;;;;;5053227;28;20179;-50
2021/03/03 10:38:31;;;;;;;25.08;11.18;;;;;;;;;;5053432;28;20270;-51
2021/03/03 10:40:58;;;;;;;22.85;11.50;;;;;;;;;;5064125;28;20187;-50
2021/03/03 10:43:25;;;;;;;23.38;10.68;;;;;;;;;;5053281;28;20226;-55
2021/03/03 10:46:17;;;;;;;21.70;10.15;;;;;;;;;;5063261;28;20179;-58
2021/03/03 10:48:44;;;;;;;24.83;9.38;;;;;;;;;;5059824;28;20214;-53
2021/03/03 10:51:11;;;;;;;24.00;9.60;;;;;;;;;;5061423;28;20210;-53
2021/03/03 10:53:54;;;;;;;24.83;10.20;;;;;;;;;;5053349;28;20189;-54
2021/03/03 10:56:27;;;;;;;23.13;9.40;;;;;;;;;;5072085;28;20460;-54
2021/03/03 10:58:54;;;;;;;20.70;9.02;;;;;;;;;;5066049;28;20252;-54
2021/03/03 11:01:20;;;;;;;16.45;8.18;;;;;;;;;;5053919;28;20594;-55
2021/03/03 11:03:51;;;;;;;19.45;8.38;;;;;;;;;;5053070;28;20195;-54
2021/03/03 11:06:17;;;;;;;15.77;8.43;;;;;;;;;;5052747;28;20226;-55
2021/03/03 11:08:43;;;;;;;16.67;8.15;;;;;;;;;;5056058;28;20583;-55
2021/03/03 11:11:09;;;;;;;16.05;7.78;;;;;;;;;;5068224;28;20281;-55
2021/03/03 11:13:36;;;;;;;20.75;9.00;;;;;;;;;;5057806;28;20174;-55
2021/03/03 11:16:02;;;;;;;15.32;7.70;;;;;;;;;;5056905;28;20456;-55
2021/03/03 11:18:28;;;;;;;13.02;7.20;;;;;;;;;;5057423;28;20559;-54
2021/03/03 11:20:55;;;;;;;14.55;7.78;;;;;;;;;;5065677;28;20190;-50
2021/03/03 11:23:21;;;;;;;12.45;7.55;;;;;;;;;;5056715;28;20198;-49
2021/03/03 11:25:47;;;;;;;13.23;7.53;;;;;;;;;;5074424;28;20206;-50
2021/03/03 11:28:13;;;;;;;13.65;7.13;;;;;;;;;;5073180;28;20187;-53
2021/03/03 11:30:39;;;;;;;13.18;6.90;;;;;;;;;;5056766;28;20210;-53
2021/03/03 11:33:05;;;;;;;14.32;7.40;;;;;;;;;;5056731;28;20582;-54
2021/03/03 11:35:32;;;;;;;12.20;7.00;;;;;;;;;;5061553;28;20258;-53
2021/03/03 11:37:57;;;;;;;18.98;10.02;;;;;;;;;;5057842;28;20530;-53
2021/03/03 11:40:24;;;;;;;16.20;9.32;;;;;;;;;;5078037;28;20187;-53
2021/03/03 11:42:50;;;;;;;17.67;9.45;;;;;;;;;;5058230;28;20183;-53
2021/03/03 11:45:16;;;;;;;15.20;9.27;;;;;;;;;;5060351;28;20755;-53
2021/03/03 11:47:43;;;;;;;17.42;8.95;;;;;;;;;;5058324;28;20190;-53
2021/03/03 11:50:09;;;;;;;15.18;8.60;;;;;;;;;;5055549;28;20261;-54
2021/03/03 11:52:35;;;;;;;14.35;8.23;;;;;;;;;;5057951;28;20616;-50
2021/03/03 11:55:01;;;;;;;11.73;7.28;;;;;;;;;;5059815;28;20175;-50
2021/03/03 11:57:27;;;;;;;11.10;6.60;;;;;;;;;;5057016;28;20229;-49
2021/03/03 11:59:53;;;;;;;16.30;6.82;;;;;;;;;;5056202;28;20444;-50
2021/03/03 12:03:08;;;;;;;10.98;6.60;;;;;;;;;;5070913;28;20827;-50
2021/03/03 12:05:34;;;;;;;11.65;6.32;;;;;;;;;;5071001;28;20191;-52
2021/03/03 12:08:00;;;;;;;10.43;6.63;;;;;;;;;;5061253;28;20193;-47
2021/03/03 12:10:27;;;;;;;9.55;6.40;;;;;;;;;;5051914;28;20183;-49
2021/03/03 12:13:45;;;;;;;13.50;6.40;;;;;;;;;;5091794;28;20490;-48
2021/03/03 12:16:11;;;;;;;10.32;6.20;;;;;;;;;;5070559;28;20178;-55
2021/03/03 12:18:37;;;;;;;11.38;5.70;;;;;;;;;;5070247;28;20460;-56
2021/03/03 12:21:03;;;;;;;10.48;5.82;;;;;;;;;;5062796;28;20578;-51
2021/03/03 12:23:29;;;;;;;7.70;5.70;;;;;;;;;;5061968;28;20182;-54
2021/03/03 12:25:55;;;;;;;8.57;5.57;;;;;;;;;;5053213;28;20183;-51
2021/03/03 12:28:22;;;;;;;8.68;4.93;;;;;;;;;;5061790;28;20613;-51
2021/03/03 12:30:48;;;;;;;8.02;5.40;;;;;;;;;;5063482;28;20248;-51
2021/03/03 12:33:14;;;;;;;12.70;5.97;;;;;;;;;;5056833;28;20234;-51
2021/03/03 12:35:40;;;;;;;9.63;6.43;;;;;;;;;;5050447;28;20333;-53
2021/03/03 12:38:06;;;;;;;8.73;6.03;;;;;;;;;;5058123;28;20179;-56
2021/03/03 12:40:32;;;;;;;10.57;5.78;;;;;;;;;;5055649;28;20486;-52
2021/03/03 12:42:58;;;;;;;9.07;5.15;;;;;;;;;;5052218;28;20176;-50
2021/03/03 12:45:24;;;;;;;8.18;5.68;;;;;;;;;;5053781;28;20189;-51
2021/03/03 12:47:50;;;;;;;8.00;5.38;;;;;;;;;;5050766;28;20206;-55
2021/03/03 12:50:17;;;;;;;7.55;5.60;;;;;;;;;;5051226;28;20543;-57
2021/03/03 12:52:43;;;;;;;7.60;5.53;;;;;;;;;;5064635;28;20217;-53
2021/03/03 12:55:09;;;;;;;7.45;4.57;;;;;;;;;;5054405;28;20270;-52
2021/03/03 12:57:35;;;;;;;7.97;4.80;;;;;;;;;;5059383;28;20558;-52
2021/03/03 13:00:01;;;;;;;9.82;5.03;;;;;;;;;;5051759;28;20183;-52
2021/03/03 13:02:27;;;;;;;7.10;4.63;;;;;;;;;;5050093;28;20744;-52
2021/03/03 13:04:53;;;;;;;7.03;5.20;;;;;;;;;;5062113;28;20271;-52
2021/03/03 13:07:19;;;;;;;6.72;4.55;;;;;;;;;;5067370;28;20225;-52
2021/03/03 13:09:45;;;;;;;7.07;4.60;;;;;;;;;;5054287;28;20563;-52
2021/03/03 13:12:11;;;;;;;7.28;4.80;;;;;;;;;;5050743;28;20772;-52
2021/03/03 13:14:37;;;;;;;6.90;4.53;;;;;;;;;;5050020;28;20190;-53
2021/03/03 13:17:05;;;;;;;5.30;4.55;;;;;;;;;;5045132;28;20172;-53
2021/03/03 13:19:31;;;;;;;5.78;4.03;;;;;;;;;;5031315;28;20202;-53
2021/03/03 13:21:58;;;;;;;7.60;4.50;;;;;;;;;;5041617;28;20188;-51
2021/03/03 13:24:24;;;;;;;5.00;4.47;;;;;;;;;;5031005;28;20460;-51
2021/03/03 13:26:51;;;;;;;5.60;4.35;;;;;;;;;;5017396;28;20225;-51
2021/03/03 13:29:17;;;;;;;5.43;4.00;;;;;;;;;;5023015;28;20198;-51
2021/03/03 13:31:43;;;;;;;9.00;4.60;;;;;;;;;;5016632;28;20556;-51
2021/03/03 13:34:09;;;;;;;5.57;4.30;;;;;;;;;;5020439;28;20176;-50
2021/03/03 13:36:35;;;;;;;5.15;3.85;;;;;;;;;;5035104;28;20176;-50
2021/03/03 13:39:01;;;;;;;5.93;3.78;;;;;;;;;;5032005;28;20195;-51
2021/03/03 13:41:27;;;;;;;5.57;4.50;;;;;;;;;;5036229;28;20180;-51
2021/03/03 13:43:53;;;;;;;5.15;4.13;;;;;;;;;;5036552;28;20601;-52
2021/03/03 13:46:19;;;;;;;4.93;4.20;;;;;;;;;;5029143;28;20285;-52
2021/03/03 13:48:45;;;;;;;7.85;3.58;;;;;;;;;;5016946;28;20203;-51
2021/03/03 13:51:11;;;;;;;6.30;3.88;;;;;;;;;;5016469;28;20164;-50
2021/03/03 13:53:37;;;;;;;5.47;3.80;;;;;;;;;;5027318;28;20217;-51
2021/03/03 13:56:03;;;;;;;5.38;3.83;;;;;;;;;;5019481;28;20173;-51
2021/03/03 13:58:31;;;;;;;4.18;3.38;;;;;;;;;;5024243;28;20230;-52
2021/03/03 14:00:57;;;;;;;6.10;3.67;;;;;;;;;;5030331;28;20183;-52
2021/03/03 14:03:23;;;;;;;5.80;4.30;;;;;;;;;;5029387;28;20198;-52
2021/03/03 14:05:49;;;;;;;5.30;4.10;;;;;;;;;;5035646;28;20510;-51
2021/03/03 14:08:15;;;;;;;6.35;3.47;;;;;;;;;;5024701;28;20275;-52
2021/03/03 14:10:41;;;;;;;5.72;4.22;;;;;;;;;;5027989;28;20238;-51
2021/03/03 14:13:07;;;;;;;4.75;3.72;;;;;;;;;;5015912;28;20200;-51
2021/03/03 14:15:33;;;;;;;6.45;4.00;;;;;;;;;;5015694;28;20232;-51
2021/03/03 14:17:59;;;;;;;5.65;4.20;;;;;;;;;;5029602;28;20600;-52
2021/03/03 14:20:25;;;;;;;5.50;3.83;;;;;;;;;;5035193;28;20214;-51
2021/03/03 14:22:51;;;;;;;6.10;4.13;;;;;;;;;;5030272;28;20259;-51
2021/03/03 14:25:17;;;;;;;5.03;3.80;;;;;;;;;;5022057;28;20761;-52
2021/03/03 14:27:43;;;;;;;5.55;4.20;;;;;;;;;;5015802;28;20180;-52
2021/03/03 14:30:09;;;;;;;5.75;3.42;;;;;;;;;;5034988;28;20482;-51
2021/03/03 14:32:35;;;;;;;4.90;3.67;;;;;;;;;;5035370;28;20667;-51
2021/03/03 14:35:01;;;;;;;4.00;3.53;;;;;;;;;;5022955;28;20199;-51
2021/03/03 14:37:27;;;;;;;3.88;3.53;;;;;;;;;;5032087;28;20176;-52
2021/03/03 14:39:53;;;;;;;4.70;3.90;;;;;;;;;;5025390;28;20180;-52
2021/03/03 14:42:19;;;;;;;6.13;3.63;;;;;;;;;;5035053;28;20172;-52